الصفحة الرئيسية
METAR-TAF:

METAR-TAF

مطار :

هاربين, جمهورية الصين الشعبية

مطار هاربين الدولي

دائرة عرض: 45-45N, خط طول: 126-46E, ارتفاع: 143 متر

مراقبة الطقس الحالي

تاريخ ووقت الإصدار 15 دقيقة قبل الساعة 16:00UTC
ريح 4 عقدة من الشمال الشرقي
درجة الحرارة 6°درجة مئوية
الرطوبة 52%
ضغط 1025 hPa
الرؤية: 6000 متر

METAR: ZYHB 221600Z 04002MPS 6000 NSC 06/M03 Q1025 NOSIG

زمن: 00:15 (16:15 UTC)

توقعات

تاريخ ووقت الإصدار 7ساعات و 11 دقيقة قبل الساعة 09:04UTC
التوقعات صالحة من22 الساعة 12 UTC إلى 23 الساعة 12 UTC
ريح 8 عقدة من الشمال الشرقي
الرؤية: 6000 متر
غيوم متفرقة على ارتفاع 3000 قدم

TAF: ZYHB 220904Z 2212/2312 05004MPS 6000 SCT030 TX16/2306Z TN06/2221Z

أرصاد الطقس والتوقعات من أكثر من 4000 مطار (تقارير الطقس للمطار METAR والتنبؤ بالطقس بالمطارTAF).

المحطات المتاحة هي النقط الصفراء والحمراء على الخريطة.

حرك المؤشر فوق النقطة لمعرفة اسم المحطة.

ثم انقر لمعرفة أرصاد وتوقعات الطقس.

لتغيير الخارطة: اضغط على الأزرار الخضراء مع رمز الصليب الأسود للتكبير. على الزر الأخضر مع شرطة للتصغير، أو على الأسهم الخضراء للخرائط المجاورة.


METAR-TAF: